sensor_id;sensor_type;location;lat;lon;timestamp;temperature;humidity
53073;DHT22;38955;48.916;2.336;2024-03-02T00:00:41;8.00;99.90
53073;DHT22;38955;48.916;2.336;2024-03-02T00:02:44;8.00;99.90
53073;DHT22;38955;48.916;2.336;2024-03-02T00:04:46;8.00;99.90
53073;DHT22;38955;48.916;2.336;2024-03-02T00:06:51;8.00;99.90
53073;DHT22;38955;48.916;2.336;2024-03-02T00:08:57;7.90;99.90
53073;DHT22;38955;48.916;2.336;2024-03-02T00:11:00;7.90;99.90
53073;DHT22;38955;48.916;2.336;2024-03-02T00:13:05;7.90;99.90
53073;DHT22;38955;48.916;2.336;2024-03-02T00:15:31;7.90;99.90
53073;DHT22;38955;48.916;2.336;2024-03-02T00:17:39;7.90;99.90
53073;DHT22;38955;48.916;2.336;2024-03-02T00:19:42;7.90;99.90
53073;DHT22;38955;48.916;2.336;2024-03-02T00:21:44;7.90;99.90
53073;DHT22;38955;48.916;2.336;2024-03-02T00:23:46;8.00;99.90
53073;DHT22;38955;48.916;2.336;2024-03-02T00:25:51;8.00;99.90
53073;DHT22;38955;48.916;2.336;2024-03-02T00:27:57;8.00;99.90
53073;DHT22;38955;48.916;2.336;2024-03-02T00:30:00;8.00;99.90
53073;DHT22;38955;48.916;2.336;2024-03-02T00:32:03;7.90;99.90
53073;DHT22;38955;48.916;2.336;2024-03-02T00:34:06;8.00;99.90
53073;DHT22;38955;48.916;2.336;2024-03-02T00:36:10;8.00;99.90
53073;DHT22;38955;48.916;2.336;2024-03-02T00:38:12;8.00;99.90
53073;DHT22;38955;48.916;2.336;2024-03-02T00:40:16;7.90;99.90
53073;DHT22;38955;48.916;2.336;2024-03-02T00:42:19;7.90;99.90
53073;DHT22;38955;48.916;2.336;2024-03-02T00:44:26;7.90;99.90
53073;DHT22;38955;48.916;2.336;2024-03-02T00:46:34;7.90;99.90
53073;DHT22;38955;48.916;2.336;2024-03-02T00:48:51;7.80;99.90
53073;DHT22;38955;48.916;2.336;2024-03-02T00:50:55;7.80;99.90
53073;DHT22;38955;48.916;2.336;2024-03-02T00:52:57;7.80;99.90
53073;DHT22;38955;48.916;2.336;2024-03-02T00:54:59;7.80;99.90
53073;DHT22;38955;48.916;2.336;2024-03-02T00:57:02;7.80;99.90
53073;DHT22;38955;48.916;2.336;2024-03-02T00:59:10;7.80;99.90
53073;DHT22;38955;48.916;2.336;2024-03-02T01:01:12;7.80;99.90
53073;DHT22;38955;48.916;2.336;2024-03-02T01:03:14;7.80;99.90
53073;DHT22;38955;48.916;2.336;2024-03-02T01:05:16;7.90;99.90
53073;DHT22;38955;48.916;2.336;2024-03-02T01:07:20;7.90;99.90
53073;DHT22;38955;48.916;2.336;2024-03-02T01:09:22;7.80;99.90
53073;DHT22;38955;48.916;2.336;2024-03-02T01:11:24;7.90;99.90
53073;DHT22;38955;48.916;2.336;2024-03-02T01:13:26;7.80;99.90
53073;DHT22;38955;48.916;2.336;2024-03-02T01:15:28;7.70;99.90
53073;DHT22;38955;48.916;2.336;2024-03-02T01:17:30;7.80;99.90
53073;DHT22;38955;48.916;2.336;2024-03-02T01:19:33;7.80;99.90
53073;DHT22;38955;48.916;2.336;2024-03-02T01:21:35;7.80;99.90
53073;DHT22;38955;48.916;2.336;2024-03-02T01:23:39;7.80;99.90
53073;DHT22;38955;48.916;2.336;2024-03-02T01:25:41;7.80;99.90
53073;DHT22;38955;48.916;2.336;2024-03-02T01:27:43;7.70;99.90
53073;DHT22;38955;48.916;2.336;2024-03-02T01:29:47;7.70;99.90
53073;DHT22;38955;48.916;2.336;2024-03-02T01:31:49;7.90;99.90
53073;DHT22;38955;48.916;2.336;2024-03-02T01:33:53;7.80;99.90
53073;DHT22;38955;48.916;2.336;2024-03-02T01:35:56;7.80;99.90
53073;DHT22;38955;48.916;2.336;2024-03-02T01:37:58;7.80;99.90
53073;DHT22;38955;48.916;2.336;2024-03-02T01:40:02;7.70;99.90
53073;DHT22;38955;48.916;2.336;2024-03-02T01:42:05;7.70;99.90
53073;DHT22;38955;48.916;2.336;2024-03-02T01:44:07;7.80;99.90
53073;DHT22;38955;48.916;2.336;2024-03-02T01:46:09;7.70;99.90
53073;DHT22;38955;48.916;2.336;2024-03-02T01:48:11;7.70;99.90
53073;DHT22;38955;48.916;2.336;2024-03-02T01:50:14;7.80;99.90
53073;DHT22;38955;48.916;2.336;2024-03-02T01:52:16;7.80;99.90
53073;DHT22;38955;48.916;2.336;2024-03-02T01:54:18;7.70;99.90
53073;DHT22;38955;48.916;2.336;2024-03-02T01:56:21;7.70;99.90
53073;DHT22;38955;48.916;2.336;2024-03-02T01:58:24;7.70;99.90
53073;DHT22;38955;48.916;2.336;2024-03-02T02:00:26;7.60;99.90
53073;DHT22;38955;48.916;2.336;2024-03-02T02:02:29;7.70;99.90
53073;DHT22;38955;48.916;2.336;2024-03-02T02:04:31;7.70;99.90
53073;DHT22;38955;48.916;2.336;2024-03-02T02:06:33;7.70;99.90
53073;DHT22;38955;48.916;2.336;2024-03-02T02:08:36;7.70;99.90
53073;DHT22;38955;48.916;2.336;2024-03-02T02:10:39;7.70;99.90
53073;DHT22;38955;48.916;2.336;2024-03-02T02:12:42;7.60;99.90
53073;DHT22;38955;48.916;2.336;2024-03-02T02:14:47;7.60;99.90
53073;DHT22;38955;48.916;2.336;2024-03-02T02:16:51;7.60;99.90
53073;DHT22;38955;48.916;2.336;2024-03-02T02:18:54;7.50;99.90
53073;DHT22;38955;48.916;2.336;2024-03-02T02:20:56;7.50;99.90
53073;DHT22;38955;48.916;2.336;2024-03-02T02:23:00;7.60;99.90
53073;DHT22;38955;48.916;2.336;2024-03-02T02:25:02;7.70;99.90
53073;DHT22;38955;48.916;2.336;2024-03-02T02:27:05;7.70;99.90
53073;DHT22;38955;48.916;2.336;2024-03-02T02:29:07;7.60;99.90
53073;DHT22;38955;48.916;2.336;2024-03-02T02:31:09;7.50;99.90
53073;DHT22;38955;48.916;2.336;2024-03-02T02:33:11;7.40;99.90
53073;DHT22;38955;48.916;2.336;2024-03-02T02:35:14;7.50;99.90
53073;DHT22;38955;48.916;2.336;2024-03-02T02:37:16;7.60;99.90
53073;DHT22;38955;48.916;2.336;2024-03-02T02:39:21;7.60;99.90
53073;DHT22;38955;48.916;2.336;2024-03-02T02:41:24;7.60;99.90
53073;DHT22;38955;48.916;2.336;2024-03-02T02:43:26;7.60;99.90
53073;DHT22;38955;48.916;2.336;2024-03-02T02:45:28;7.60;99.90
53073;DHT22;38955;48.916;2.336;2024-03-02T02:47:30;7.60;99.90
53073;DHT22;38955;48.916;2.336;2024-03-02T02:49:32;7.50;99.90
53073;DHT22;38955;48.916;2.336;2024-03-02T02:51:34;7.40;99.90
53073;DHT22;38955;48.916;2.336;2024-03-02T02:53:36;7.40;99.90
53073;DHT22;38955;48.916;2.336;2024-03-02T02:55:43;7.50;99.90
53073;DHT22;38955;48.916;2.336;2024-03-02T02:57:45;7.50;99.90
53073;DHT22;38955;48.916;2.336;2024-03-02T02:59:48;7.40;99.90
53073;DHT22;38955;48.916;2.336;2024-03-02T03:01:51;7.50;99.90
53073;DHT22;38955;48.916;2.336;2024-03-02T03:03:53;7.40;99.90
53073;DHT22;38955;48.916;2.336;2024-03-02T03:05:55;7.50;99.90
53073;DHT22;38955;48.916;2.336;2024-03-02T03:07:57;7.40;99.90
53073;DHT22;38955;48.916;2.336;2024-03-02T03:09:59;7.40;99.90
53073;DHT22;38955;48.916;2.336;2024-03-02T03:12:04;7.50;99.90
53073;DHT22;38955;48.916;2.336;2024-03-02T03:14:06;7.50;99.90
53073;DHT22;38955;48.916;2.336;2024-03-02T03:16:08;7.50;99.90
53073;DHT22;38955;48.916;2.336;2024-03-02T03:18:10;7.40;99.90
53073;DHT22;38955;48.916;2.336;2024-03-02T03:20:13;7.40;99.90
53073;DHT22;38955;48.916;2.336;2024-03-02T03:22:16;7.40;99.90
53073;DHT22;38955;48.916;2.336;2024-03-02T03:24:18;7.40;99.90
53073;DHT22;38955;48.916;2.336;2024-03-02T03:26:20;7.40;99.90
53073;DHT22;38955;48.916;2.336;2024-03-02T03:28:23;7.40;99.90
53073;DHT22;38955;48.916;2.336;2024-03-02T03:30:26;7.40;99.90
53073;DHT22;38955;48.916;2.336;2024-03-02T03:32:28;7.30;99.90
53073;DHT22;38955;48.916;2.336;2024-03-02T03:34:32;7.30;99.90
53073;DHT22;38955;48.916;2.336;2024-03-02T03:36:34;7.30;99.90
53073;DHT22;38955;48.916;2.336;2024-03-02T03:38:36;7.30;99.90
53073;DHT22;38955;48.916;2.336;2024-03-02T03:40:38;7.40;99.90
53073;DHT22;38955;48.916;2.336;2024-03-02T03:42:40;7.30;99.90
53073;DHT22;38955;48.916;2.336;2024-03-02T03:44:43;7.40;99.90
53073;DHT22;38955;48.916;2.336;2024-03-02T03:46:45;7.40;99.90
53073;DHT22;38955;48.916;2.336;2024-03-02T03:48:47;7.30;99.90
53073;DHT22;38955;48.916;2.336;2024-03-02T03:50:50;7.30;99.90
53073;DHT22;38955;48.916;2.336;2024-03-02T03:52:52;7.30;99.90
53073;DHT22;38955;48.916;2.336;2024-03-02T03:54:54;7.30;99.90
53073;DHT22;38955;48.916;2.336;2024-03-02T03:56:56;7.30;99.90
53073;DHT22;38955;48.916;2.336;2024-03-02T03:58:59;7.30;99.90
53073;DHT22;38955;48.916;2.336;2024-03-02T04:01:03;7.30;99.90
53073;DHT22;38955;48.916;2.336;2024-03-02T04:03:05;7.30;99.90
53073;DHT22;38955;48.916;2.336;2024-03-02T04:05:07;7.30;99.90
53073;DHT22;38955;48.916;2.336;2024-03-02T04:07:13;7.20;99.90
53073;DHT22;38955;48.916;2.336;2024-03-02T04:09:15;7.20;99.90
53073;DHT22;38955;48.916;2.336;2024-03-02T04:11:17;7.30;99.90
53073;DHT22;38955;48.916;2.336;2024-03-02T04:13:20;7.20;99.90
53073;DHT22;38955;48.916;2.336;2024-03-02T04:15:22;7.20;99.90
53073;DHT22;38955;48.916;2.336;2024-03-02T04:17:26;7.30;99.90
53073;DHT22;38955;48.916;2.336;2024-03-02T04:19:28;7.10;99.90
53073;DHT22;38955;48.916;2.336;2024-03-02T04:21:31;7.10;99.90
53073;DHT22;38955;48.916;2.336;2024-03-02T04:23:33;7.10;99.90
53073;DHT22;38955;48.916;2.336;2024-03-02T04:25:35;7.10;99.90
53073;DHT22;38955;48.916;2.336;2024-03-02T04:27:37;7.10;99.90
53073;DHT22;38955;48.916;2.336;2024-03-02T04:29:40;7.10;99.90
53073;DHT22;38955;48.916;2.336;2024-03-02T04:31:42;7.10;99.90
53073;DHT22;38955;48.916;2.336;2024-03-02T04:33:45;7.10;99.90
53073;DHT22;38955;48.916;2.336;2024-03-02T04:35:47;7.20;99.90
53073;DHT22;38955;48.916;2.336;2024-03-02T04:37:50;7.10;99.90
53073;DHT22;38955;48.916;2.336;2024-03-02T04:39:52;7.10;99.90
53073;DHT22;38955;48.916;2.336;2024-03-02T04:41:54;7.10;99.90
53073;DHT22;38955;48.916;2.336;2024-03-02T04:43:56;7.10;99.90
53073;DHT22;38955;48.916;2.336;2024-03-02T04:45:58;7.10;99.90
53073;DHT22;38955;48.916;2.336;2024-03-02T04:48:00;7.10;99.90
53073;DHT22;38955;48.916;2.336;2024-03-02T04:50:05;7.10;99.90
53073;DHT22;38955;48.916;2.336;2024-03-02T04:52:10;7.10;99.90
53073;DHT22;38955;48.916;2.336;2024-03-02T04:54:12;7.00;99.90
53073;DHT22;38955;48.916;2.336;2024-03-02T04:56:16;7.00;99.90
53073;DHT22;38955;48.916;2.336;2024-03-02T04:58:50;7.00;99.90
53073;DHT22;38955;48.916;2.336;2024-03-02T05:00:52;7.00;99.90
53073;DHT22;38955;48.916;2.336;2024-03-02T05:02:54;7.10;99.90
53073;DHT22;38955;48.916;2.336;2024-03-02T05:04:56;7.10;99.90
53073;DHT22;38955;48.916;2.336;2024-03-02T05:06:59;7.10;99.90
53073;DHT22;38955;48.916;2.336;2024-03-02T05:09:02;7.10;99.90
53073;DHT22;38955;48.916;2.336;2024-03-02T05:11:05;7.10;99.90
53073;DHT22;38955;48.916;2.336;2024-03-02T05:13:25;7.10;99.90
53073;DHT22;38955;48.916;2.336;2024-03-02T05:15:27;7.10;99.90
53073;DHT22;38955;48.916;2.336;2024-03-02T05:17:30;7.00;99.90
53073;DHT22;38955;48.916;2.336;2024-03-02T05:19:32;7.00;99.90
53073;DHT22;38955;48.916;2.336;2024-03-02T05:21:34;7.00;99.90
53073;DHT22;38955;48.916;2.336;2024-03-02T05:23:38;7.10;99.90
53073;DHT22;38955;48.916;2.336;2024-03-02T05:25:41;7.10;99.90
53073;DHT22;38955;48.916;2.336;2024-03-02T05:27:43;7.10;99.90
53073;DHT22;38955;48.916;2.336;2024-03-02T05:29:45;7.00;99.90
53073;DHT22;38955;48.916;2.336;2024-03-02T05:31:47;7.00;99.90
53073;DHT22;38955;48.916;2.336;2024-03-02T05:33:49;7.10;99.90
53073;DHT22;38955;48.916;2.336;2024-03-02T05:35:58;7.00;99.90
53073;DHT22;38955;48.916;2.336;2024-03-02T05:38:00;7.10;99.90
53073;DHT22;38955;48.916;2.336;2024-03-02T05:40:04;7.00;99.90
53073;DHT22;38955;48.916;2.336;2024-03-02T05:42:07;7.00;99.90
53073;DHT22;38955;48.916;2.336;2024-03-02T05:44:09;7.10;99.90
53073;DHT22;38955;48.916;2.336;2024-03-02T05:46:11;7.10;99.90
53073;DHT22;38955;48.916;2.336;2024-03-02T05:48:13;7.10;99.90
53073;DHT22;38955;48.916;2.336;2024-03-02T05:50:16;7.10;99.90
53073;DHT22;38955;48.916;2.336;2024-03-02T05:52:18;7.00;99.90
53073;DHT22;38955;48.916;2.336;2024-03-02T05:54:21;7.10;99.90
53073;DHT22;38955;48.916;2.336;2024-03-02T05:56:25;7.00;99.90
53073;DHT22;38955;48.916;2.336;2024-03-02T05:58:27;7.00;99.90
53073;DHT22;38955;48.916;2.336;2024-03-02T06:00:47;7.00;99.90
53073;DHT22;38955;48.916;2.336;2024-03-02T06:02:50;7.00;99.90
53073;DHT22;38955;48.916;2.336;2024-03-02T06:04:55;7.00;99.90
53073;DHT22;38955;48.916;2.336;2024-03-02T06:06:57;7.00;99.90
53073;DHT22;38955;48.916;2.336;2024-03-02T06:08:59;7.10;99.90
53073;DHT22;38955;48.916;2.336;2024-03-02T06:11:02;7.10;99.90
53073;DHT22;38955;48.916;2.336;2024-03-02T06:13:05;7.10;99.90
53073;DHT22;38955;48.916;2.336;2024-03-02T06:15:08;7.10;99.90
53073;DHT22;38955;48.916;2.336;2024-03-02T06:17:10;7.20;99.90
53073;DHT22;38955;48.916;2.336;2024-03-02T06:19:12;7.10;99.90
53073;DHT22;38955;48.916;2.336;2024-03-02T06:21:14;7.20;99.90
53073;DHT22;38955;48.916;2.336;2024-03-02T06:23:16;7.10;99.90
53073;DHT22;38955;48.916;2.336;2024-03-02T06:25:20;7.20;99.90
53073;DHT22;38955;48.916;2.336;2024-03-02T06:27:22;7.20;99.90
53073;DHT22;38955;48.916;2.336;2024-03-02T06:29:25;7.30;99.90
53073;DHT22;38955;48.916;2.336;2024-03-02T06:31:27;7.30;99.90
53073;DHT22;38955;48.916;2.336;2024-03-02T06:33:29;7.30;99.90
53073;DHT22;38955;48.916;2.336;2024-03-02T06:35:31;7.40;99.90
53073;DHT22;38955;48.916;2.336;2024-03-02T06:37:33;7.40;99.90
53073;DHT22;38955;48.916;2.336;2024-03-02T06:39:35;7.40;99.90
53073;DHT22;38955;48.916;2.336;2024-03-02T06:41:38;7.40;99.90
53073;DHT22;38955;48.916;2.336;2024-03-02T06:43:41;7.40;99.90
53073;DHT22;38955;48.916;2.336;2024-03-02T06:45:44;7.40;99.90
53073;DHT22;38955;48.916;2.336;2024-03-02T06:47:47;7.40;99.90
53073;DHT22;38955;48.916;2.336;2024-03-02T06:49:49;7.40;99.90
53073;DHT22;38955;48.916;2.336;2024-03-02T06:51:51;7.50;99.90
53073;DHT22;38955;48.916;2.336;2024-03-02T06:53:53;7.50;99.90
53073;DHT22;38955;48.916;2.336;2024-03-02T06:55:55;7.50;99.90
53073;DHT22;38955;48.916;2.336;2024-03-02T06:57:57;7.50;99.90
53073;DHT22;38955;48.916;2.336;2024-03-02T06:59:59;7.60;99.90
53073;DHT22;38955;48.916;2.336;2024-03-02T07:02:03;7.60;99.90
53073;DHT22;38955;48.916;2.336;2024-03-02T07:04:06;7.60;99.90
53073;DHT22;38955;48.916;2.336;2024-03-02T07:06:08;7.60;99.90
53073;DHT22;38955;48.916;2.336;2024-03-02T07:08:10;7.60;99.90
53073;DHT22;38955;48.916;2.336;2024-03-02T07:10:12;7.60;99.90
53073;DHT22;38955;48.916;2.336;2024-03-02T07:12:14;7.60;99.90
53073;DHT22;38955;48.916;2.336;2024-03-02T07:14:17;7.70;99.90
53073;DHT22;38955;48.916;2.336;2024-03-02T07:16:19;7.80;99.90
53073;DHT22;38955;48.916;2.336;2024-03-02T07:18:31;7.80;99.90
53073;DHT22;38955;48.916;2.336;2024-03-02T07:20:33;7.80;99.90
53073;DHT22;38955;48.916;2.336;2024-03-02T07:22:35;7.80;99.90
53073;DHT22;38955;48.916;2.336;2024-03-02T07:24:41;7.80;99.90
53073;DHT22;38955;48.916;2.336;2024-03-02T07:26:43;7.80;99.90
53073;DHT22;38955;48.916;2.336;2024-03-02T07:28:48;7.80;99.90
53073;DHT22;38955;48.916;2.336;2024-03-02T07:30:58;7.90;99.90
53073;DHT22;38955;48.916;2.336;2024-03-02T07:33:00;7.90;99.90
53073;DHT22;38955;48.916;2.336;2024-03-02T07:35:04;7.90;99.90
53073;DHT22;38955;48.916;2.336;2024-03-02T07:37:06;8.00;99.90
53073;DHT22;38955;48.916;2.336;2024-03-02T07:39:08;8.10;99.90
53073;DHT22;38955;48.916;2.336;2024-03-02T07:41:11;8.20;99.90
53073;DHT22;38955;48.916;2.336;2024-03-02T07:43:14;8.20;99.90
53073;DHT22;38955;48.916;2.336;2024-03-02T07:45:16;8.30;99.90
53073;DHT22;38955;48.916;2.336;2024-03-02T07:47:18;8.30;99.90
53073;DHT22;38955;48.916;2.336;2024-03-02T07:49:20;8.30;99.90
53073;DHT22;38955;48.916;2.336;2024-03-02T07:51:24;8.40;99.90
53073;DHT22;38955;48.916;2.336;2024-03-02T07:53:26;8.40;99.90
53073;DHT22;38955;48.916;2.336;2024-03-02T07:55:28;8.40;99.90
53073;DHT22;38955;48.916;2.336;2024-03-02T07:57:30;8.50;99.90
53073;DHT22;38955;48.916;2.336;2024-03-02T07:59:32;8.50;99.90
53073;DHT22;38955;48.916;2.336;2024-03-02T08:01:34;8.50;99.90
53073;DHT22;38955;48.916;2.336;2024-03-02T08:03:37;8.60;99.90
53073;DHT22;38955;48.916;2.336;2024-03-02T08:05:39;8.70;99.90
53073;DHT22;38955;48.916;2.336;2024-03-02T08:07:44;8.80;99.90
53073;DHT22;38955;48.916;2.336;2024-03-02T08:09:46;8.90;99.90
53073;DHT22;38955;48.916;2.336;2024-03-02T08:11:48;8.80;99.90
53073;DHT22;38955;48.916;2.336;2024-03-02T08:13:50;8.80;99.90
53073;DHT22;38955;48.916;2.336;2024-03-02T08:15:54;8.90;99.90
53073;DHT22;38955;48.916;2.336;2024-03-02T08:17:56;8.80;99.90
53073;DHT22;38955;48.916;2.336;2024-03-02T08:19:59;8.90;99.90
53073;DHT22;38955;48.916;2.336;2024-03-02T08:22:01;8.90;99.90
53073;DHT22;38955;48.916;2.336;2024-03-02T08:24:06;8.90;99.90
53073;DHT22;38955;48.916;2.336;2024-03-02T08:26:08;8.90;99.90
53073;DHT22;38955;48.916;2.336;2024-03-02T08:28:11;9.00;99.90
53073;DHT22;38955;48.916;2.336;2024-03-02T08:30:13;9.00;99.90
53073;DHT22;38955;48.916;2.336;2024-03-02T08:32:15;9.00;99.90
53073;DHT22;38955;48.916;2.336;2024-03-02T08:34:19;9.00;99.90
53073;DHT22;38955;48.916;2.336;2024-03-02T08:36:21;9.00;99.90
53073;DHT22;38955;48.916;2.336;2024-03-02T08:38:23;9.00;99.90
53073;DHT22;38955;48.916;2.336;2024-03-02T08:40:27;9.00;99.90
53073;DHT22;38955;48.916;2.336;2024-03-02T08:42:29;9.00;99.90
53073;DHT22;38955;48.916;2.336;2024-03-02T08:44:31;9.00;99.90
53073;DHT22;38955;48.916;2.336;2024-03-02T08:46:33;9.00;99.90
53073;DHT22;38955;48.916;2.336;2024-03-02T08:48:35;9.10;99.90
53073;DHT22;38955;48.916;2.336;2024-03-02T08:50:37;9.00;99.90
53073;DHT22;38955;48.916;2.336;2024-03-02T08:52:39;9.00;99.90
53073;DHT22;38955;48.916;2.336;2024-03-02T08:54:42;9.10;99.90
53073;DHT22;38955;48.916;2.336;2024-03-02T08:56:45;9.10;99.90
53073;DHT22;38955;48.916;2.336;2024-03-02T08:58:47;9.20;99.90
53073;DHT22;38955;48.916;2.336;2024-03-02T09:00:50;9.50;99.90
53073;DHT22;38955;48.916;2.336;2024-03-02T09:02:52;9.70;99.90
53073;DHT22;38955;48.916;2.336;2024-03-02T09:04:54;9.60;99.90
53073;DHT22;38955;48.916;2.336;2024-03-02T09:06:56;9.90;99.90
53073;DHT22;38955;48.916;2.336;2024-03-02T09:08:58;9.90;99.90
53073;DHT22;38955;48.916;2.336;2024-03-02T09:11:00;9.90;99.90
53073;DHT22;38955;48.916;2.336;2024-03-02T09:13:03;9.60;99.90
53073;DHT22;38955;48.916;2.336;2024-03-02T09:15:06;9.50;99.90
53073;DHT22;38955;48.916;2.336;2024-03-02T09:17:08;9.40;99.90
53073;DHT22;38955;48.916;2.336;2024-03-02T09:19:12;9.20;99.90
53073;DHT22;38955;48.916;2.336;2024-03-02T09:21:15;9.20;99.90
53073;DHT22;38955;48.916;2.336;2024-03-02T09:23:17;9.20;99.90
53073;DHT22;38955;48.916;2.336;2024-03-02T09:25:19;9.00;99.90
53073;DHT22;38955;48.916;2.336;2024-03-02T09:27:21;9.00;99.90
53073;DHT22;38955;48.916;2.336;2024-03-02T09:29:25;8.90;99.90
53073;DHT22;38955;48.916;2.336;2024-03-02T09:31:27;8.90;99.90
53073;DHT22;38955;48.916;2.336;2024-03-02T09:33:29;9.00;99.90
53073;DHT22;38955;48.916;2.336;2024-03-02T09:35:32;9.00;99.90
53073;DHT22;38955;48.916;2.336;2024-03-02T09:37:34;8.90;99.90
53073;DHT22;38955;48.916;2.336;2024-03-02T09:39:36;8.90;99.90
53073;DHT22;38955;48.916;2.336;2024-03-02T09:41:38;9.00;99.90
53073;DHT22;38955;48.916;2.336;2024-03-02T09:43:41;9.00;99.90
53073;DHT22;38955;48.916;2.336;2024-03-02T09:45:45;9.00;99.90
53073;DHT22;38955;48.916;2.336;2024-03-02T09:47:49;9.10;99.90
53073;DHT22;38955;48.916;2.336;2024-03-02T09:49:51;9.20;99.90
53073;DHT22;38955;48.916;2.336;2024-03-02T09:51:53;9.20;99.90
53073;DHT22;38955;48.916;2.336;2024-03-02T09:53:55;9.20;99.90
53073;DHT22;38955;48.916;2.336;2024-03-02T09:56:13;9.20;99.90
53073;DHT22;38955;48.916;2.336;2024-03-02T09:58:17;9.40;99.90
53073;DHT22;38955;48.916;2.336;2024-03-02T10:00:20;9.30;99.90
53073;DHT22;38955;48.916;2.336;2024-03-02T10:02:23;9.40;99.90
53073;DHT22;38955;48.916;2.336;2024-03-02T10:04:26;9.60;99.90
53073;DHT22;38955;48.916;2.336;2024-03-02T10:06:29;9.70;99.90
53073;DHT22;38955;48.916;2.336;2024-03-02T10:08:42;9.70;99.90
53073;DHT22;38955;48.916;2.336;2024-03-02T10:10:45;9.80;99.90
53073;DHT22;38955;48.916;2.336;2024-03-02T10:12:48;10.20;99.90
53073;DHT22;38955;48.916;2.336;2024-03-02T10:15:03;10.20;99.90
53073;DHT22;38955;48.916;2.336;2024-03-02T10:17:09;10.10;99.90
53073;DHT22;38955;48.916;2.336;2024-03-02T10:19:20;10.30;99.90
53073;DHT22;38955;48.916;2.336;2024-03-02T10:21:22;10.40;99.90
53073;DHT22;38955;48.916;2.336;2024-03-02T10:23:26;10.40;99.90
53073;DHT22;38955;48.916;2.336;2024-03-02T10:25:29;10.60;99.90
53073;DHT22;38955;48.916;2.336;2024-03-02T10:27:50;10.60;99.90
53073;DHT22;38955;48.916;2.336;2024-03-02T10:29:52;10.60;99.90
53073;DHT22;38955;48.916;2.336;2024-03-02T10:31:54;10.80;99.90
53073;DHT22;38955;48.916;2.336;2024-03-02T10:33:58;10.90;99.90
53073;DHT22;38955;48.916;2.336;2024-03-02T10:36:03;11.10;99.90
53073;DHT22;38955;48.916;2.336;2024-03-02T10:38:05;10.90;99.90
53073;DHT22;38955;48.916;2.336;2024-03-02T10:40:11;10.70;99.90
53073;DHT22;38955;48.916;2.336;2024-03-02T10:42:14;10.70;99.90
53073;DHT22;38955;48.916;2.336;2024-03-02T10:44:17;10.60;99.90
53073;DHT22;38955;48.916;2.336;2024-03-02T10:46:19;10.60;99.90
53073;DHT22;38955;48.916;2.336;2024-03-02T10:48:22;10.80;99.90
53073;DHT22;38955;48.916;2.336;2024-03-02T10:50:25;10.90;99.90
53073;DHT22;38955;48.916;2.336;2024-03-02T10:52:29;10.90;99.90
53073;DHT22;38955;48.916;2.336;2024-03-02T10:54:31;10.80;99.90
53073;DHT22;38955;48.916;2.336;2024-03-02T10:56:40;11.00;99.90
53073;DHT22;38955;48.916;2.336;2024-03-02T10:58:42;11.10;99.90
53073;DHT22;38955;48.916;2.336;2024-03-02T11:00:44;11.00;99.90
53073;DHT22;38955;48.916;2.336;2024-03-02T11:02:50;10.80;99.90
53073;DHT22;38955;48.916;2.336;2024-03-02T11:04:55;10.90;99.90
53073;DHT22;38955;48.916;2.336;2024-03-02T11:07:00;10.80;99.90
53073;DHT22;38955;48.916;2.336;2024-03-02T11:09:07;10.60;99.90
53073;DHT22;38955;48.916;2.336;2024-03-02T11:11:16;10.30;99.90
53073;DHT22;38955;48.916;2.336;2024-03-02T11:13:24;10.50;99.90
53073;DHT22;38955;48.916;2.336;2024-03-02T11:15:28;10.80;99.90
53073;DHT22;38955;48.916;2.336;2024-03-02T11:17:30;10.70;99.90
53073;DHT22;38955;48.916;2.336;2024-03-02T11:19:33;10.80;99.90
53073;DHT22;38955;48.916;2.336;2024-03-02T11:21:36;10.80;99.90
53073;DHT22;38955;48.916;2.336;2024-03-02T11:23:39;10.90;99.90
53073;DHT22;38955;48.916;2.336;2024-03-02T11:25:43;10.90;99.90
53073;DHT22;38955;48.916;2.336;2024-03-02T11:28:01;10.90;99.90
53073;DHT22;38955;48.916;2.336;2024-03-02T11:30:05;10.90;99.90
53073;DHT22;38955;48.916;2.336;2024-03-02T11:32:14;11.00;99.90
53073;DHT22;38955;48.916;2.336;2024-03-02T11:34:29;11.00;99.90
53073;DHT22;38955;48.916;2.336;2024-03-02T11:36:31;10.90;99.90
53073;DHT22;38955;48.916;2.336;2024-03-02T11:38:34;10.90;99.90
53073;DHT22;38955;48.916;2.336;2024-03-02T11:40:39;10.90;99.90
53073;DHT22;38955;48.916;2.336;2024-03-02T11:42:43;10.90;99.90
53073;DHT22;38955;48.916;2.336;2024-03-02T11:44:46;10.70;99.90
53073;DHT22;38955;48.916;2.336;2024-03-02T11:46:52;10.70;99.90
53073;DHT22;38955;48.916;2.336;2024-03-02T11:48:55;10.70;99.90
53073;DHT22;38955;48.916;2.336;2024-03-02T11:50:58;10.80;99.90
53073;DHT22;38955;48.916;2.336;2024-03-02T11:53:01;11.00;99.90
53073;DHT22;38955;48.916;2.336;2024-03-02T11:55:05;11.10;99.90
53073;DHT22;38955;48.916;2.336;2024-03-02T11:57:11;11.30;99.90
53073;DHT22;38955;48.916;2.336;2024-03-02T11:59:15;11.30;99.90
53073;DHT22;38955;48.916;2.336;2024-03-02T12:01:17;11.50;99.90
53073;DHT22;38955;48.916;2.336;2024-03-02T12:03:21;11.50;99.90
53073;DHT22;38955;48.916;2.336;2024-03-02T12:05:25;11.40;99.90
53073;DHT22;38955;48.916;2.336;2024-03-02T12:07:28;11.50;99.90
53073;DHT22;38955;48.916;2.336;2024-03-02T12:09:30;11.40;99.90
53073;DHT22;38955;48.916;2.336;2024-03-02T12:11:32;11.20;99.90
53073;DHT22;38955;48.916;2.336;2024-03-02T12:13:34;11.10;99.90
53073;DHT22;38955;48.916;2.336;2024-03-02T12:15:39;11.00;99.90
53073;DHT22;38955;48.916;2.336;2024-03-02T12:17:44;10.90;99.90
53073;DHT22;38955;48.916;2.336;2024-03-02T12:19:47;10.90;99.90
53073;DHT22;38955;48.916;2.336;2024-03-02T12:21:49;10.70;99.90
53073;DHT22;38955;48.916;2.336;2024-03-02T12:23:51;10.60;99.90
53073;DHT22;38955;48.916;2.336;2024-03-02T12:25:53;10.60;99.90
53073;DHT22;38955;48.916;2.336;2024-03-02T12:27:57;10.50;99.90
53073;DHT22;38955;48.916;2.336;2024-03-02T12:30:00;10.40;99.90
53073;DHT22;38955;48.916;2.336;2024-03-02T12:32:04;10.30;99.90
53073;DHT22;38955;48.916;2.336;2024-03-02T12:34:07;10.20;99.90
53073;DHT22;38955;48.916;2.336;2024-03-02T12:36:10;10.20;99.90
53073;DHT22;38955;48.916;2.336;2024-03-02T12:38:14;10.20;99.90
53073;DHT22;38955;48.916;2.336;2024-03-02T12:40:17;10.20;99.90
53073;DHT22;38955;48.916;2.336;2024-03-02T12:42:20;10.20;99.90
53073;DHT22;38955;48.916;2.336;2024-03-02T12:44:24;10.10;99.90
53073;DHT22;38955;48.916;2.336;2024-03-02T12:46:26;10.20;99.90
53073;DHT22;38955;48.916;2.336;2024-03-02T12:48:29;10.20;99.90
53073;DHT22;38955;48.916;2.336;2024-03-02T12:50:32;10.20;99.90
53073;DHT22;38955;48.916;2.336;2024-03-02T12:52:35;10.30;99.90
53073;DHT22;38955;48.916;2.336;2024-03-02T12:54:37;10.30;99.90
53073;DHT22;38955;48.916;2.336;2024-03-02T12:56:40;10.30;99.90
53073;DHT22;38955;48.916;2.336;2024-03-02T12:58:47;10.20;99.90
53073;DHT22;38955;48.916;2.336;2024-03-02T13:00:49;10.20;99.90
53073;DHT22;38955;48.916;2.336;2024-03-02T13:02:51;10.20;99.90
53073;DHT22;38955;48.916;2.336;2024-03-02T13:04:55;10.20;99.90
53073;DHT22;38955;48.916;2.336;2024-03-02T13:06:58;10.30;99.90
53073;DHT22;38955;48.916;2.336;2024-03-02T13:09:00;10.30;99.90